Time;durP1;ratioP1;P1;durP2;ratioP2;P2;SDS_P1;SDS_P2;PMS_P1;PMS_P2;Temp;Humidity;BMP_temperature;BMP_pressure;BME280_temperature;BME280_humidity;BME280_pressure;Samples;Min_cycle;Max_cycle;Signal;HPM_P1;HPM_P2
2020/12/17 00:01:10;;;;;;;21.42;11.35;;;;;;;;;;5074816;28;20480;-84
2020/12/17 00:03:36;;;;;;;22.27;11.18;;;;;;;;;;5074911;28;20028;-84
2020/12/17 00:06:02;;;;;;;26.60;12.90;;;;;;;;;;5074668;28;20020;-85
2020/12/17 00:08:28;;;;;;;24.17;11.95;;;;;;;;;;5056503;28;20040;-86
2020/12/17 00:10:55;;;;;;;20.75;11.32;;;;;;;;;;5074605;28;20103;-86
2020/12/17 00:13:22;;;;;;;24.50;11.93;;;;;;;;;;5074657;28;20028;-86
2020/12/17 00:15:48;;;;;;;23.00;12.35;;;;;;;;;;5074814;28;20078;-86
2020/12/17 00:18:14;;;;;;;26.35;12.77;;;;;;;;;;5074285;28;20033;-82
2020/12/17 00:20:40;;;;;;;22.83;11.55;;;;;;;;;;5074288;28;20044;-79
2020/12/17 00:23:06;;;;;;;25.88;11.82;;;;;;;;;;5056570;28;20020;-87
2020/12/17 00:25:32;;;;;;;23.08;11.40;;;;;;;;;;5074147;28;20518;-87
2020/12/17 00:27:58;;;;;;;25.50;12.05;;;;;;;;;;5074376;28;20465;-87
2020/12/17 00:30:24;;;;;;;26.33;12.80;;;;;;;;;;5074433;28;20033;-86
2020/12/17 00:32:50;;;;;;;22.20;11.77;;;;;;;;;;5073889;28;20024;-87
2020/12/17 00:35:17;;;;;;;23.55;11.55;;;;;;;;;;5074038;28;20025;-81
2020/12/17 00:37:43;;;;;;;26.80;12.93;;;;;;;;;;5074129;28;20028;-81
2020/12/17 00:40:10;;;;;;;22.80;11.93;;;;;;;;;;5073997;28;20025;-84
2020/12/17 00:42:40;;;;;;;23.90;12.00;;;;;;;;;;5056072;28;20074;-85
2020/12/17 00:45:06;;;;;;;27.50;12.00;;;;;;;;;;5073844;28;20020;-86
2020/12/17 00:47:32;;;;;;;23.65;12.77;;;;;;;;;;5073872;28;20036;-87
2020/12/17 00:49:58;;;;;;;24.77;12.93;;;;;;;;;;5073345;28;20039;-79
2020/12/17 00:52:25;;;;;;;24.83;13.32;;;;;;;;;;5073792;28;20117;-86
2020/12/17 00:54:51;;;;;;;25.63;12.30;;;;;;;;;;5073826;28;20025;-82
2020/12/17 00:57:18;;;;;;;26.17;12.82;;;;;;;;;;5073608;28;20036;-86
2020/12/17 00:59:44;;;;;;;25.17;12.95;;;;;;;;;;5073874;28;20020;-85
2020/12/17 01:02:10;;;;;;;23.60;12.07;;;;;;;;;;5073789;28;20032;-86
2020/12/17 01:04:36;;;;;;;28.88;13.70;;;;;;;;;;5073408;28;20052;-85
2020/12/17 01:07:02;;;;;;;28.77;14.55;;;;;;;;;;5073404;28;20082;-86
2020/12/17 01:09:28;;;;;;;23.20;11.80;;;;;;;;;;5073236;28;20473;-83
2020/12/17 01:11:54;;;;;;;27.38;12.13;;;;;;;;;;5073416;28;20032;-86
2020/12/17 01:14:20;;;;;;;25.40;13.13;;;;;;;;;;5073376;28;20020;-84
2020/12/17 01:16:47;;;;;;;29.85;14.25;;;;;;;;;;5073313;28;20033;-85
2020/12/17 01:19:13;;;;;;;24.02;13.02;;;;;;;;;;5073626;28;20472;-84
2020/12/17 01:21:39;;;;;;;24.77;12.32;;;;;;;;;;5073356;28;20538;-86
2020/12/17 01:24:06;;;;;;;20.92;11.55;;;;;;;;;;5073322;28;20024;-86
2020/12/17 01:26:32;;;;;;;23.23;10.85;;;;;;;;;;5072884;28;20072;-84
2020/12/17 01:28:58;;;;;;;21.83;11.57;;;;;;;;;;5072829;28;20016;-86
2020/12/17 01:31:24;;;;;;;23.02;12.10;;;;;;;;;;5073023;28;20056;-84
2020/12/17 01:33:50;;;;;;;20.55;11.18;;;;;;;;;;5073041;28;20027;-85
2020/12/17 01:36:16;;;;;;;21.98;11.48;;;;;;;;;;5072530;28;20096;-85
2020/12/17 01:38:42;;;;;;;21.58;11.50;;;;;;;;;;5072837;28;20025;-84
2020/12/17 01:41:12;;;;;;;20.55;10.68;;;;;;;;;;5072851;28;20024;-84
2020/12/17 01:43:42;;;;;;;22.45;11.35;;;;;;;;;;5072635;28;20455;-83
2020/12/17 01:46:09;;;;;;;21.77;11.15;;;;;;;;;;5072720;28;20027;-81
2020/12/17 01:48:35;;;;;;;18.48;9.95;;;;;;;;;;5072582;28;20089;-80
2020/12/17 01:51:02;;;;;;;20.23;11.13;;;;;;;;;;5054714;28;20028;-86
2020/12/17 01:53:28;;;;;;;20.90;10.57;;;;;;;;;;5072683;28;20491;-86
2020/12/17 01:55:56;;;;;;;20.42;10.45;;;;;;;;;;5072440;28;20414;-86
2020/12/17 01:58:24;;;;;;;19.60;10.35;;;;;;;;;;5072325;28;20190;-83
2020/12/17 02:00:53;;;;;;;23.65;11.00;;;;;;;;;;5072380;28;20107;-86
2020/12/17 02:03:20;;;;;;;18.50;9.80;;;;;;;;;;5071530;28;20571;-84
2020/12/17 02:05:47;;;;;;;19.23;9.73;;;;;;;;;;5072048;28;20024;-84
2020/12/17 02:08:14;;;;;;;17.40;9.98;;;;;;;;;;5072701;28;20545;-84
2020/12/17 02:10:41;;;;;;;17.33;9.90;;;;;;;;;;5072529;28;20025;-86
2020/12/17 02:13:07;;;;;;;16.58;8.82;;;;;;;;;;5072535;28;20024;-86
2020/12/17 02:15:33;;;;;;;20.05;9.48;;;;;;;;;;5072394;28;20021;-85
2020/12/17 02:17:59;;;;;;;18.35;8.77;;;;;;;;;;5072184;28;20044;-85
2020/12/17 02:20:25;;;;;;;17.08;9.38;;;;;;;;;;5072431;28;20031;-83
2020/12/17 02:22:51;;;;;;;16.58;8.57;;;;;;;;;;5072143;28;20020;-85
2020/12/17 02:25:17;;;;;;;13.20;7.43;;;;;;;;;;5072171;28;20036;-81
2020/12/17 02:27:45;;;;;;;14.80;8.23;;;;;;;;;;5072518;28;20047;-85
2020/12/17 02:30:12;;;;;;;14.23;7.50;;;;;;;;;;5072717;28;20115;-84
2020/12/17 02:32:39;;;;;;;15.23;7.55;;;;;;;;;;5072156;28;20357;-85
2020/12/17 02:35:06;;;;;;;14.80;7.72;;;;;;;;;;5072227;28;20095;-86
2020/12/17 02:37:32;;;;;;;13.27;7.20;;;;;;;;;;5071908;28;20476;-86
2020/12/17 02:39:58;;;;;;;14.75;7.43;;;;;;;;;;5072148;28;20484;-85
2020/12/17 02:42:25;;;;;;;14.80;7.93;;;;;;;;;;5072182;28;20476;-85
2020/12/17 02:44:51;;;;;;;11.73;6.93;;;;;;;;;;5071972;28;20032;-86
2020/12/17 02:47:17;;;;;;;13.82;7.63;;;;;;;;;;5072036;28;20074;-84
2020/12/17 02:49:43;;;;;;;14.63;7.57;;;;;;;;;;5072303;28;20023;-85
2020/12/17 02:52:09;;;;;;;12.45;6.85;;;;;;;;;;5072163;28;20511;-84
2020/12/17 02:54:35;;;;;;;12.73;7.15;;;;;;;;;;5071632;28;20444;-85
2020/12/17 02:57:01;;;;;;;12.15;6.63;;;;;;;;;;5072021;28;20048;-85
2020/12/17 02:59:28;;;;;;;12.50;7.13;;;;;;;;;;5071857;28;20032;-83
2020/12/17 03:01:54;;;;;;;13.48;6.03;;;;;;;;;;5071775;28;20021;-80
2020/12/17 03:04:20;;;;;;;9.75;6.13;;;;;;;;;;5071572;28;20028;-86
2020/12/17 03:06:46;;;;;;;13.20;6.93;;;;;;;;;;5071787;28;20016;-85
2020/12/17 03:09:12;;;;;;;11.75;6.63;;;;;;;;;;5072209;28;20036;-84
2020/12/17 03:11:38;;;;;;;11.85;6.55;;;;;;;;;;5071407;28;20105;-85
2020/12/17 03:14:04;;;;;;;11.48;6.80;;;;;;;;;;5074335;28;20020;-83
2020/12/17 03:16:32;;;;;;;12.20;6.93;;;;;;;;;;5075983;28;20025;-82
2020/12/17 03:18:58;;;;;;;12.05;6.40;;;;;;;;;;5075642;28;21051;-86
2020/12/17 03:21:24;;;;;;;12.15;6.65;;;;;;;;;;5075747;28;20028;-86
2020/12/17 03:23:50;;;;;;;13.70;7.35;;;;;;;;;;5075200;28;20020;-85
2020/12/17 03:26:16;;;;;;;11.63;6.88;;;;;;;;;;5075463;28;20040;-84
2020/12/17 03:28:42;;;;;;;11.68;6.30;;;;;;;;;;5075975;28;20020;-84
2020/12/17 03:31:08;;;;;;;11.80;6.45;;;;;;;;;;5057810;28;20029;-84
2020/12/17 03:33:34;;;;;;;11.73;6.43;;;;;;;;;;5075600;28;20036;-84
2020/12/17 03:36:00;;;;;;;13.32;7.00;;;;;;;;;;5075542;28;20108;-83
2020/12/17 03:38:26;;;;;;;10.65;6.05;;;;;;;;;;5075359;28;20352;-83
2020/12/17 03:40:52;;;;;;;12.48;6.68;;;;;;;;;;5075282;28;20036;-85
2020/12/17 03:43:18;;;;;;;12.27;6.50;;;;;;;;;;5075205;28;20039;-86
2020/12/17 03:45:44;;;;;;;10.38;5.70;;;;;;;;;;5075299;28;20025;-84
2020/12/17 03:48:10;;;;;;;9.68;5.85;;;;;;;;;;5075444;28;20062;-84
2020/12/17 03:50:37;;;;;;;10.77;5.88;;;;;;;;;;5075075;28;20024;-85
2020/12/17 03:53:03;;;;;;;9.82;5.57;;;;;;;;;;5075121;28;20024;-82
2020/12/17 03:55:29;;;;;;;9.38;5.30;;;;;;;;;;5074967;28;20605;-83
2020/12/17 03:57:55;;;;;;;8.63;5.40;;;;;;;;;;5074844;28;20035;-83
2020/12/17 04:00:21;;;;;;;10.10;5.43;;;;;;;;;;5075007;28;20031;-85
2020/12/17 04:02:47;;;;;;;9.80;5.53;;;;;;;;;;5074951;28;20031;-84
2020/12/17 04:05:13;;;;;;;11.88;6.57;;;;;;;;;;5056941;28;20024;-82
2020/12/17 04:07:39;;;;;;;10.43;5.47;;;;;;;;;;5074894;28;20024;-82
2020/12/17 04:10:05;;;;;;;10.85;6.15;;;;;;;;;;5074646;28;20017;-83
2020/12/17 04:12:31;;;;;;;11.18;6.20;;;;;;;;;;5074874;28;20024;-74
2020/12/17 04:14:57;;;;;;;9.18;5.50;;;;;;;;;;5074541;28;20082;-81
2020/12/17 04:17:23;;;;;;;8.93;5.78;;;;;;;;;;5073662;28;20033;-81
2020/12/17 04:19:49;;;;;;;10.23;5.65;;;;;;;;;;5074526;28;20024;-84
2020/12/17 04:22:18;;;;;;;10.23;5.65;;;;;;;;;;5074650;28;20024;-84
2020/12/17 04:24:45;;;;;;;8.80;5.20;;;;;;;;;;5073605;28;20353;-82
2020/12/17 04:27:11;;;;;;;10.60;6.13;;;;;;;;;;5074357;28;20045;-82
2020/12/17 04:29:37;;;;;;;10.50;6.05;;;;;;;;;;5074446;28;20103;-85
2020/12/17 04:32:04;;;;;;;9.05;5.32;;;;;;;;;;5073935;28;20052;-84
2020/12/17 04:34:30;;;;;;;10.02;6.15;;;;;;;;;;5074269;28;20542;-81
2020/12/17 04:36:56;;;;;;;9.60;5.78;;;;;;;;;;5055842;28;20548;-84
2020/12/17 04:39:22;;;;;;;8.18;5.22;;;;;;;;;;5056358;28;20021;-85
2020/12/17 04:41:48;;;;;;;9.48;5.20;;;;;;;;;;5074096;28;20036;-84
2020/12/17 04:44:17;;;;;;;8.48;5.13;;;;;;;;;;5074155;28;20028;-82
2020/12/17 04:46:48;;;;;;;8.10;4.97;;;;;;;;;;5073883;28;20027;-81
2020/12/17 04:49:18;;;;;;;9.82;4.70;;;;;;;;;;5074023;28;20145;-81
2020/12/17 04:51:47;;;;;;;8.68;5.22;;;;;;;;;;5073977;28;20017;-79
2020/12/17 04:54:14;;;;;;;14.85;6.53;;;;;;;;;;5073772;28;20028;-84
2020/12/17 04:56:42;;;;;;;12.80;6.38;;;;;;;;;;5073858;28;20099;-83
2020/12/17 04:59:09;;;;;;;10.90;5.90;;;;;;;;;;5073797;28;20116;-83
2020/12/17 05:01:38;;;;;;;9.77;5.75;;;;;;;;;;5073742;28;20020;-84
2020/12/17 05:04:04;;;;;;;9.77;5.68;;;;;;;;;;5073412;28;20016;-84
2020/12/17 05:06:30;;;;;;;9.73;5.57;;;;;;;;;;5073717;28;20020;-84
2020/12/17 05:08:56;;;;;;;9.60;5.75;;;;;;;;;;5073697;28;20380;-84
2020/12/17 05:11:22;;;;;;;9.18;5.10;;;;;;;;;;5073434;28;20526;-82
2020/12/17 05:13:48;;;;;;;10.20;5.32;;;;;;;;;;5073563;28;20025;-82
2020/12/17 05:16:14;;;;;;;9.38;5.10;;;;;;;;;;5073280;28;20387;-85
2020/12/17 05:18:40;;;;;;;8.25;5.15;;;;;;;;;;5073576;28;20070;-86
2020/12/17 05:21:07;;;;;;;8.77;5.93;;;;;;;;;;5073370;28;20056;-86
2020/12/17 05:23:33;;;;;;;9.77;6.07;;;;;;;;;;5073337;28;20028;-81
2020/12/17 05:26:00;;;;;;;11.25;5.95;;;;;;;;;;5072966;28;20116;-86
2020/12/17 05:28:26;;;;;;;9.05;5.47;;;;;;;;;;5071503;28;20549;-85
2020/12/17 05:30:52;;;;;;;11.45;6.38;;;;;;;;;;5055147;28;20055;-81
2020/12/17 05:33:22;;;;;;;12.98;6.95;;;;;;;;;;5071603;28;20043;-85
2020/12/17 05:35:49;;;;;;;11.60;7.60;;;;;;;;;;5071616;28;20018;-87
2020/12/17 05:38:17;;;;;;;13.45;7.45;;;;;;;;;;5071877;28;20032;-86
2020/12/17 05:40:43;;;;;;;22.95;12.25;;;;;;;;;;5072063;28;20220;-82
2020/12/17 05:43:10;;;;;;;19.65;12.43;;;;;;;;;;5072136;28;20021;-82
2020/12/17 05:45:37;;;;;;;22.02;12.30;;;;;;;;;;5071716;28;20019;-86
2020/12/17 05:48:09;;;;;;;16.98;10.23;;;;;;;;;;5072670;28;20029;-86
2020/12/17 05:50:35;;;;;;;13.38;8.85;;;;;;;;;;5072969;28;20062;-84
2020/12/17 05:53:03;;;;;;;13.18;8.25;;;;;;;;;;5072951;28;20025;-86
2020/12/17 05:55:32;;;;;;;28.17;9.05;;;;;;;;;;5072853;28;20020;-86
2020/12/17 05:57:58;;;;;;;12.45;7.63;;;;;;;;;;5072718;28;20036;-86
2020/12/17 06:00:24;;;;;;;12.98;7.53;;;;;;;;;;5072837;28;20166;-86
2020/12/17 06:02:50;;;;;;;13.32;8.07;;;;;;;;;;5072641;28;20025;-86
2020/12/17 06:05:17;;;;;;;12.18;7.93;;;;;;;;;;5072715;28;20020;-85
2020/12/17 06:07:48;;;;;;;12.30;7.32;;;;;;;;;;5072757;28;20527;-84
2020/12/17 06:10:18;;;;;;;17.85;7.65;;;;;;;;;;5072586;28;20035;-75
2020/12/17 06:12:45;;;;;;;12.23;7.40;;;;;;;;;;5072473;28;20048;-73
2020/12/17 06:15:14;;;;;;;11.52;7.57;;;;;;;;;;5072674;28;20021;-85
2020/12/17 06:17:43;;;;;;;12.50;7.60;;;;;;;;;;5072388;28;20044;-84
2020/12/17 06:20:09;;;;;;;13.57;7.28;;;;;;;;;;5054339;28;20025;-85
2020/12/17 06:22:35;;;;;;;10.13;6.70;;;;;;;;;;5072185;28;20094;-81
2020/12/17 06:25:01;;;;;;;12.13;7.10;;;;;;;;;;5071951;28;20468;-81
2020/12/17 06:27:31;;;;;;;10.75;6.68;;;;;;;;;;5054401;28;20059;-84
2020/12/17 06:30:05;;;;;;;12.68;7.22;;;;;;;;;;5072174;28;20025;-85
2020/12/17 06:32:31;;;;;;;;;;;;;;;;;;5072908;28;20029;-82
2020/12/17 06:34:58;;;;;;;15.43;9.90;;;;;;;;;;5072144;28;20062;-85
2020/12/17 06:37:24;;;;;;;16.98;10.10;;;;;;;;;;5072034;28;20119;-85
2020/12/17 06:39:51;;;;;;;14.98;8.88;;;;;;;;;;5072109;28;20020;-85
2020/12/17 06:42:35;;;;;;;17.13;9.63;;;;;;;;;;5072063;28;20025;-86
2020/12/17 06:45:01;;;;;;;16.98;8.75;;;;;;;;;;5072383;28;20028;-85
2020/12/17 06:47:28;;;;;;;19.30;11.20;;;;;;;;;;5071807;28;20098;-85
2020/12/17 06:49:54;;;;;;;14.25;9.43;;;;;;;;;;5071955;28;20024;-85
2020/12/17 06:52:20;;;;;;;10.60;7.15;;;;;;;;;;5071404;28;20020;-82
2020/12/17 06:54:46;;;;;;;11.82;7.82;;;;;;;;;;5071838;28;20016;-80
2020/12/17 06:57:16;;;;;;;14.10;7.80;;;;;;;;;;5071996;28;20084;-85
2020/12/17 06:59:43;;;;;;;12.73;8.00;;;;;;;;;;5072033;28;20013;-85
2020/12/17 07:02:10;;;;;;;17.10;7.72;;;;;;;;;;5072022;28;20028;-80
2020/12/17 07:04:36;;;;;;;13.63;7.85;;;;;;;;;;5071813;28;20020;-78
2020/12/17 07:07:11;;;;;;;12.68;7.28;;;;;;;;;;5071895;28;20464;-85
2020/12/17 07:09:37;;;;;;;11.88;6.90;;;;;;;;;;5072009;28;20028;-85
2020/12/17 07:12:04;;;;;;;10.93;7.45;;;;;;;;;;5071383;28;20028;-85
2020/12/17 07:14:30;;;;;;;13.23;7.93;;;;;;;;;;5071805;28;20476;-85
2020/12/17 07:17:00;;;;;;;14.18;9.15;;;;;;;;;;5071354;28;20102;-84
2020/12/17 07:19:26;;;;;;;18.33;9.73;;;;;;;;;;5071779;28;20028;-82
2020/12/17 07:21:59;;;;;;;19.63;10.93;;;;;;;;;;5071610;28;20020;-78
2020/12/17 07:24:26;;;;;;;21.38;11.10;;;;;;;;;;5053290;28;20708;-85
2020/12/17 07:26:53;;;;;;;16.85;8.95;;;;;;;;;;5071259;28;20048;-85
2020/12/17 07:29:28;;;;;;;12.80;7.93;;;;;;;;;;5071517;28;20050;-85
2020/12/17 07:31:54;;;;;;;11.38;6.22;;;;;;;;;;5071519;28;20029;-85
2020/12/17 07:34:20;;;;;;;9.23;5.45;;;;;;;;;;5071676;28;20046;-85
2020/12/17 07:36:47;;;;;;;7.30;4.43;;;;;;;;;;5071316;28;20025;-84
2020/12/17 07:39:13;;;;;;;8.07;4.53;;;;;;;;;;5071654;28;20028;-84
2020/12/17 07:41:39;;;;;;;8.48;4.85;;;;;;;;;;5053549;28;20491;-85
2020/12/17 07:44:05;;;;;;;7.43;4.40;;;;;;;;;;5071125;28;20396;-85
2020/12/17 07:46:36;;;;;;;9.13;4.10;;;;;;;;;;5071553;28;20016;-82
2020/12/17 07:49:02;;;;;;;8.77;4.93;;;;;;;;;;5071451;28;20089;-85
2020/12/17 07:51:29;;;;;;;8.68;4.80;;;;;;;;;;5071473;28;20032;-83
2020/12/17 07:53:56;;;;;;;7.78;3.45;;;;;;;;;;5071806;28;20357;-86
2020/12/17 07:56:22;;;;;;;6.85;4.15;;;;;;;;;;5071662;28;20041;-84
2020/12/17 07:58:49;;;;;;;5.18;2.83;;;;;;;;;;5071580;28;20035;-85
2020/12/17 08:01:17;;;;;;;8.38;4.75;;;;;;;;;;5074143;28;20048;-86
2020/12/17 08:03:44;;;;;;;7.90;4.40;;;;;;;;;;5075047;28;20016;-86
2020/12/17 08:06:11;;;;;;;7.40;4.55;;;;;;;;;;5075007;28;20027;-86
2020/12/17 08:08:37;;;;;;;6.05;3.95;;;;;;;;;;5074700;28;20021;-86
2020/12/17 08:11:05;;;;;;;7.53;4.57;;;;;;;;;;5074805;28;20108;-85
2020/12/17 08:13:31;;;;;;;10.15;4.93;;;;;;;;;;5074791;28;20506;-85
2020/12/17 08:15:57;;;;;;;6.90;3.90;;;;;;;;;;5074708;28;20465;-85
2020/12/17 08:18:24;;;;;;;6.82;4.35;;;;;;;;;;5074731;28;20040;-82
2020/12/17 08:20:59;;;;;;;6.35;3.83;;;;;;;;;;5074447;28;20492;-85
2020/12/17 08:23:27;;;;;;;7.75;4.25;;;;;;;;;;5074544;28;20491;-84
2020/12/17 08:25:53;;;;;;;9.85;5.13;;;;;;;;;;5074163;28;20048;-86
2020/12/17 08:28:20;;;;;;;8.02;4.45;;;;;;;;;;5074334;28;20016;-85
2020/12/17 08:30:46;;;;;;;8.98;4.80;;;;;;;;;;5074385;28;20033;-85
2020/12/17 08:33:12;;;;;;;9.27;4.82;;;;;;;;;;5074461;28;20029;-83
2020/12/17 08:35:38;;;;;;;8.68;4.38;;;;;;;;;;5074418;28;20025;-85
2020/12/17 08:38:08;;;;;;;7.78;4.40;;;;;;;;;;5074282;28;20040;-85
2020/12/17 08:40:36;;;;;;;7.45;4.20;;;;;;;;;;5074155;28;20480;-84
2020/12/17 08:43:04;;;;;;;7.78;4.05;;;;;;;;;;5074369;28;20035;-85
2020/12/17 08:45:30;;;;;;;8.18;4.00;;;;;;;;;;5074284;28;20100;-85
2020/12/17 08:47:57;;;;;;;8.75;5.03;;;;;;;;;;5074105;28;20048;-85
2020/12/17 08:50:23;;;;;;;6.43;3.92;;;;;;;;;;5074177;28;20032;-84
2020/12/17 08:52:50;;;;;;;5.93;3.85;;;;;;;;;;5074004;28;20389;-84
2020/12/17 08:55:16;;;;;;;6.47;3.58;;;;;;;;;;5073932;28;20104;-84
2020/12/17 08:57:42;;;;;;;6.93;3.95;;;;;;;;;;5073882;28;20476;-84
2020/12/17 09:00:15;;;;;;;10.60;3.67;;;;;;;;;;5073957;28;20059;-84
2020/12/17 09:02:42;;;;;;;7.43;4.57;;;;;;;;;;5073902;28;20025;-80
2020/12/17 09:05:11;;;;;;;8.18;4.47;;;;;;;;;;5073890;28;20017;-83
2020/12/17 09:07:40;;;;;;;8.57;4.82;;;;;;;;;;5073910;28;20103;-85
2020/12/17 09:10:14;;;;;;;7.18;4.68;;;;;;;;;;5073781;28;20021;-84
2020/12/17 09:12:40;;;;;;;9.25;6.20;;;;;;;;;;5073727;28;20028;-80
2020/12/17 09:15:07;;;;;;;10.45;4.43;;;;;;;;;;5073844;28;20056;-74
2020/12/17 09:17:34;;;;;;;8.38;4.60;;;;;;;;;;5073153;28;20036;-85
2020/12/17 09:20:00;;;;;;;7.75;4.05;;;;;;;;;;5073427;28;20021;-82
2020/12/17 09:22:34;;;;;;;6.97;4.20;;;;;;;;;;5073447;28;20098;-85
2020/12/17 09:25:00;;;;;;;6.63;4.05;;;;;;;;;;5073272;28;20028;-85
2020/12/17 09:27:30;;;;;;;8.57;4.60;;;;;;;;;;5073270;28;20077;-84
2020/12/17 09:30:14;;;;;;;6.55;4.25;;;;;;;;;;5073255;28;20113;-86
2020/12/17 09:32:40;;;;;;;8.70;4.40;;;;;;;;;;5073438;28;20418;-83
2020/12/17 09:35:11;;;;;;;8.13;4.22;;;;;;;;;;5055410;28;20480;-85
2020/12/17 09:37:37;;;;;;;7.68;4.40;;;;;;;;;;5072961;28;20128;-85
2020/12/17 09:40:05;;;;;;;9.48;4.88;;;;;;;;;;5073174;28;20035;-85
2020/12/17 09:42:31;;;;;;;7.53;4.55;;;;;;;;;;5073098;28;20026;-85
2020/12/17 09:44:57;;;;;;;7.07;4.13;;;;;;;;;;5073016;28;20016;-85
2020/12/17 09:47:29;;;;;;;6.28;3.90;;;;;;;;;;5072984;28;20039;-81
2020/12/17 09:49:56;;;;;;;9.98;5.40;;;;;;;;;;5072919;28;20032;-81
2020/12/17 09:52:26;;;;;;;9.43;5.05;;;;;;;;;;5072863;28;20054;-85
2020/12/17 09:54:52;;;;;;;6.90;4.43;;;;;;;;;;5072664;28;20078;-84
2020/12/17 09:57:18;;;;;;;7.00;4.32;;;;;;;;;;5072359;28;20032;-85
2020/12/17 09:59:45;;;;;;;8.05;4.28;;;;;;;;;;5072920;28;20020;-82
2020/12/17 10:02:13;;;;;;;7.28;4.05;;;;;;;;;;5072841;28;20384;-84
2020/12/17 10:04:42;;;;;;;6.57;3.70;;;;;;;;;;5072464;28;20020;-86
2020/12/17 10:07:08;;;;;;;5.60;3.85;;;;;;;;;;5072693;28;20020;-85
2020/12/17 10:09:35;;;;;;;7.07;4.20;;;;;;;;;;5072654;28;20056;-85
2020/12/17 10:12:01;;;;;;;8.95;4.68;;;;;;;;;;5052716;28;20029;-85
2020/12/17 10:14:28;;;;;;;9.50;5.53;;;;;;;;;;5052462;28;20044;-85
2020/12/17 10:17:00;;;;;;;9.80;4.68;;;;;;;;;;5052302;28;20040;-83
2020/12/17 10:19:27;;;;;;;7.93;4.32;;;;;;;;;;5052412;28;20029;-85
2020/12/17 10:21:53;;;;;;;8.05;4.63;;;;;;;;;;5052607;28;20021;-84
2020/12/17 10:24:19;;;;;;;8.10;4.20;;;;;;;;;;5051784;28;20142;-85
2020/12/17 10:26:45;;;;;;;7.93;3.85;;;;;;;;;;5052139;28;20455;-84
2020/12/17 10:29:11;;;;;;;6.32;3.95;;;;;;;;;;5052563;28;20057;-85
2020/12/17 10:31:37;;;;;;;7.90;4.32;;;;;;;;;;5052249;28;20044;-85
2020/12/17 10:34:06;;;;;;;7.25;4.07;;;;;;;;;;5034326;28;20036;-85
2020/12/17 10:36:36;;;;;;;10.10;4.60;;;;;;;;;;5034605;28;20025;-84
2020/12/17 10:39:02;;;;;;;7.15;4.38;;;;;;;;;;5052286;28;20040;-85
2020/12/17 10:41:28;;;;;;;6.47;4.03;;;;;;;;;;5052015;28;20021;-86
2020/12/17 10:43:54;;;;;;;7.55;4.95;;;;;;;;;;5051900;28;20043;-86
2020/12/17 10:46:20;;;;;;;7.53;4.18;;;;;;;;;;5034266;28;20021;-86
2020/12/17 10:48:47;;;;;;;7.85;4.55;;;;;;;;;;5034063;28;20021;-86
2020/12/17 10:51:17;;;;;;;9.48;4.57;;;;;;;;;;5052319;28;20028;-86
2020/12/17 10:53:43;;;;;;;10.45;5.03;;;;;;;;;;5052102;28;20063;-86
2020/12/17 10:56:10;;;;;;;9.32;5.05;;;;;;;;;;5051994;28;20021;-83
2020/12/17 10:58:36;;;;;;;6.15;4.03;;;;;;;;;;5051785;28;20045;-86
2020/12/17 11:01:03;;;;;;;7.22;4.68;;;;;;;;;;5052038;28;20385;-86
2020/12/17 11:03:29;;;;;;;7.30;4.57;;;;;;;;;;5051836;28;20090;-85
2020/12/17 11:05:56;;;;;;;10.13;5.00;;;;;;;;;;5052036;28;20024;-86
2020/12/17 11:08:23;;;;;;;9.60;4.63;;;;;;;;;;5051890;28;20029;-83
2020/12/17 11:10:49;;;;;;;8.02;4.90;;;;;;;;;;5033803;28;20457;-86
2020/12/17 11:13:15;;;;;;;8.13;4.80;;;;;;;;;;5051813;28;20100;-86
2020/12/17 11:15:42;;;;;;;8.82;5.03;;;;;;;;;;5052082;28;20086;-86
2020/12/17 11:18:08;;;;;;;7.88;3.63;;;;;;;;;;5051347;28;20029;-86
2020/12/17 11:20:34;;;;;;;7.97;4.95;;;;;;;;;;5051748;28;20029;-86
2020/12/17 11:23:00;;;;;;;8.00;5.03;;;;;;;;;;5051547;28;20025;-85
2020/12/17 11:25:26;;;;;;;7.45;4.55;;;;;;;;;;5051510;28;20036;-87
2020/12/17 11:27:52;;;;;;;6.85;4.38;;;;;;;;;;5051736;28;20029;-86
2020/12/17 11:30:18;;;;;;;7.93;5.05;;;;;;;;;;5051827;28;20013;-85
2020/12/17 11:32:44;;;;;;;7.40;4.35;;;;;;;;;;5052021;28;20017;-84
2020/12/17 11:35:10;;;;;;;8.32;5.28;;;;;;;;;;5054551;28;20381;-85
2020/12/17 11:37:38;;;;;;;7.40;4.85;;;;;;;;;;5055558;28;20478;-85
2020/12/17 11:40:04;;;;;;;7.07;4.88;;;;;;;;;;5055354;28;20020;-86
2020/12/17 11:42:30;;;;;;;7.28;4.97;;;;;;;;;;5055370;28;20436;-86
2020/12/17 11:44:56;;;;;;;7.57;5.10;;;;;;;;;;5055347;28;20052;-87
2020/12/17 11:47:22;;;;;;;8.80;5.32;;;;;;;;;;5055532;28;20025;-85
2020/12/17 11:49:48;;;;;;;7.30;4.32;;;;;;;;;;5055373;28;20071;-86
2020/12/17 11:52:15;;;;;;;8.10;4.85;;;;;;;;;;5055282;28;20032;-84
2020/12/17 11:54:41;;;;;;;10.70;4.93;;;;;;;;;;5055494;28;20024;-87
2020/12/17 11:57:07;;;;;;;9.10;4.68;;;;;;;;;;5055109;28;20021;-82
2020/12/17 11:59:33;;;;;;;8.40;5.47;;;;;;;;;;5055268;28;20573;-87
2020/12/17 12:01:59;;;;;;;8.40;4.95;;;;;;;;;;5055578;28;20025;-88
2020/12/17 12:04:25;;;;;;;10.13;6.15;;;;;;;;;;5055202;28;20112;-87
2020/12/17 12:06:51;;;;;;;8.98;5.75;;;;;;;;;;5055110;28;20052;-86
2020/12/17 12:09:20;;;;;;;7.47;4.00;;;;;;;;;;5055089;28;20078;-87
2020/12/17 12:11:47;;;;;;;8.45;5.00;;;;;;;;;;5055169;28;20056;-85
2020/12/17 12:14:13;;;;;;;9.98;4.45;;;;;;;;;;5037368;28;20028;-86
2020/12/17 12:16:39;;;;;;;8.50;4.85;;;;;;;;;;5054797;28;20558;-86
2020/12/17 12:19:06;;;;;;;7.60;4.90;;;;;;;;;;5055234;28;20031;-86
2020/12/17 12:21:33;;;;;;;9.07;5.30;;;;;;;;;;5054940;28;20021;-86
2020/12/17 12:23:59;;;;;;;8.43;5.20;;;;;;;;;;5054258;28;20044;-84
2020/12/17 12:26:25;;;;;;;11.77;5.10;;;;;;;;;;5054868;28;20060;-84
2020/12/17 12:28:52;;;;;;;7.80;4.75;;;;;;;;;;5054643;28;20108;-87
2020/12/17 12:31:18;;;;;;;11.18;5.38;;;;;;;;;;5072500;28;20491;-84
2020/12/17 12:33:44;;;;;;;9.68;5.38;;;;;;;;;;5074728;28;20028;-80
2020/12/17 12:36:12;;;;;;;8.07;5.03;;;;;;;;;;5056917;28;20012;-87
2020/12/17 12:38:38;;;;;;;9.30;5.30;;;;;;;;;;5074259;28;20032;-87
2020/12/17 12:41:04;;;;;;;8.73;5.57;;;;;;;;;;5056609;28;20951;-87
2020/12/17 12:43:30;;;;;;;8.30;5.20;;;;;;;;;;5074681;28;20032;-87
2020/12/17 12:45:57;;;;;;;11.30;5.72;;;;;;;;;;5055874;28;20503;-87
2020/12/17 12:48:23;;;;;;;9.77;5.88;;;;;;;;;;5074312;28;20025;-85
2020/12/17 12:50:50;;;;;;;9.20;5.90;;;;;;;;;;5074089;28;20032;-87
2020/12/17 12:53:16;;;;;;;8.77;5.75;;;;;;;;;;5074104;28;20021;-86
2020/12/17 12:55:49;;;;;;;7.75;5.30;;;;;;;;;;5074491;28;20472;-84
2020/12/17 12:58:15;;;;;;;8.45;5.30;;;;;;;;;;5074095;28;20074;-83
2020/12/17 13:00:41;;;;;;;11.80;4.95;;;;;;;;;;5074609;28;20035;-87
2020/12/17 13:03:08;;;;;;;7.57;4.97;;;;;;;;;;5074549;28;20464;-87
2020/12/17 13:05:37;;;;;;;12.00;6.55;;;;;;;;;;5073762;28;20027;-86
2020/12/17 13:08:04;;;;;;;10.40;5.85;;;;;;;;;;5074065;28;20017;-85
2020/12/17 13:10:30;;;;;;;11.27;6.45;;;;;;;;;;5074109;28;20107;-88
2020/12/17 13:12:56;;;;;;;12.52;7.18;;;;;;;;;;5074233;28;20028;-87
2020/12/17 13:15:22;;;;;;;10.07;6.00;;;;;;;;;;5074033;28;20032;-87
2020/12/17 13:17:48;;;;;;;10.55;5.53;;;;;;;;;;5073942;28;20029;-87
2020/12/17 13:20:14;;;;;;;10.55;5.65;;;;;;;;;;5074021;28;20108;-87
2020/12/17 13:22:41;;;;;;;10.05;5.10;;;;;;;;;;5074089;28;20060;-87
2020/12/17 13:25:07;;;;;;;8.13;4.70;;;;;;;;;;5073603;28;20523;-88
2020/12/17 13:27:33;;;;;;;10.43;5.63;;;;;;;;;;5073984;28;20036;-85
2020/12/17 13:29:59;;;;;;;11.25;5.97;;;;;;;;;;5074044;28;20012;-86
2020/12/17 13:32:25;;;;;;;9.43;6.13;;;;;;;;;;5074076;28;20450;-88
2020/12/17 13:34:51;;;;;;;11.55;6.90;;;;;;;;;;5073928;28;20021;-88
2020/12/17 13:37:17;;;;;;;13.93;6.97;;;;;;;;;;5073466;28;20036;-87
2020/12/17 13:39:43;;;;;;;12.45;6.45;;;;;;;;;;5073532;28;20468;-87
2020/12/17 13:42:09;;;;;;;10.73;6.78;;;;;;;;;;5055606;28;20476;-88
2020/12/17 13:44:35;;;;;;;10.32;5.85;;;;;;;;;;5073382;28;20028;-88
2020/12/17 13:47:01;;;;;;;11.45;6.40;;;;;;;;;;5073858;28;20166;-88
2020/12/17 13:49:27;;;;;;;13.48;7.47;;;;;;;;;;5073460;28;20078;-84
2020/12/17 13:51:53;;;;;;;14.10;7.40;;;;;;;;;;5073394;28;20028;-87
2020/12/17 13:54:19;;;;;;;14.50;6.90;;;;;;;;;;5073299;28;20020;-85
2020/12/17 13:56:45;;;;;;;13.45;8.10;;;;;;;;;;5072902;28;20106;-87
2020/12/17 13:59:11;;;;;;;14.18;7.25;;;;;;;;;;5072472;28;20024;-88
2020/12/17 14:01:37;;;;;;;12.40;7.40;;;;;;;;;;5073263;28;20021;-87
2020/12/17 14:04:03;;;;;;;14.18;7.88;;;;;;;;;;5073297;28;20523;-84
2020/12/17 14:06:29;;;;;;;12.20;7.30;;;;;;;;;;5072964;28;20139;-87
2020/12/17 14:08:56;;;;;;;10.77;6.45;;;;;;;;;;5072642;28;20028;-89
2020/12/17 14:11:22;;;;;;;12.82;7.05;;;;;;;;;;5073046;28;20016;-87
2020/12/17 14:13:48;;;;;;;17.33;7.22;;;;;;;;;;5073246;28;20063;-87
2020/12/17 14:16:15;;;;;;;14.25;6.95;;;;;;;;;;5072967;28;20028;-87
2020/12/17 14:18:46;;;;;;;12.27;7.40;;;;;;;;;;5073200;28;20028;-90
2020/12/17 14:21:12;;;;;;;15.07;7.40;;;;;;;;;;5073127;28;20020;-86
2020/12/17 14:23:38;;;;;;;12.35;7.15;;;;;;;;;;5055053;28;20028;-84
2020/12/17 14:26:04;;;;;;;14.65;7.32;;;;;;;;;;5055098;28;20564;-88
2020/12/17 14:28:30;;;;;;;11.98;6.55;;;;;;;;;;5072837;28;20025;-86
2020/12/17 14:30:56;;;;;;;10.32;5.90;;;;;;;;;;5072870;28;20031;-88